createdAt,value
2018-09-21T00:00:48.956Z,13.80
2018-09-21T00:03:17.771Z,13.80
2018-09-21T00:05:46.694Z,13.70
2018-09-21T00:08:15.449Z,13.70
2018-09-21T00:10:44.205Z,13.70
2018-09-21T00:13:13.161Z,13.60
2018-09-21T00:15:41.845Z,13.70
2018-09-21T00:18:10.230Z,13.70
2018-09-21T00:20:38.784Z,13.70
2018-09-21T00:23:07.459Z,13.60
2018-09-21T00:25:36.168Z,13.60
2018-09-21T00:28:05.744Z,13.60
2018-09-21T00:30:34.164Z,13.60
2018-09-21T00:33:03.072Z,13.50
2018-09-21T00:35:31.721Z,13.50
2018-09-21T00:38:00.637Z,13.60
2018-09-21T00:40:29.975Z,13.60
2018-09-21T00:42:58.759Z,13.60
2018-09-21T00:45:27.478Z,13.60
2018-09-21T00:47:56.045Z,13.70
2018-09-21T00:50:24.586Z,13.60
2018-09-21T00:52:53.223Z,13.60
2018-09-21T00:55:21.657Z,13.60
2018-09-21T00:57:50.611Z,13.70
2018-09-21T01:00:19.786Z,13.60
2018-09-21T01:02:48.201Z,13.60
2018-09-21T01:05:16.753Z,13.60
2018-09-21T01:07:45.261Z,13.60
2018-09-21T01:10:13.634Z,13.60
2018-09-21T01:12:42.304Z,13.60
2018-09-21T01:15:11.389Z,13.50
2018-09-21T01:17:40.077Z,13.50
2018-09-21T01:20:09.200Z,13.40
2018-09-21T01:22:37.684Z,13.40
2018-09-21T01:25:06.235Z,13.40
2018-09-21T01:27:35.087Z,13.40
2018-09-21T01:30:03.838Z,13.30
2018-09-21T01:32:32.563Z,13.30
2018-09-21T01:35:01.054Z,13.30
2018-09-21T01:37:29.787Z,13.20
2018-09-21T01:39:58.259Z,13.20
2018-09-21T01:42:27.610Z,13.20
2018-09-21T01:44:56.017Z,13.20
2018-09-21T01:47:24.610Z,13.20
2018-09-21T01:49:53.535Z,13.10
2018-09-21T01:52:22.089Z,13.10
2018-09-21T01:54:50.514Z,13.00
2018-09-21T01:57:18.917Z,13.00
2018-09-21T01:59:47.410Z,13.00
2018-09-21T02:02:16.575Z,13.00
2018-09-21T02:04:46.506Z,13.00
2018-09-21T02:07:15.035Z,12.90
2018-09-21T02:09:44.112Z,12.90
2018-09-21T02:12:13.040Z,12.90
2018-09-21T02:14:41.925Z,12.90
2018-09-21T02:17:10.439Z,12.90
2018-09-21T02:19:39.494Z,12.90
2018-09-21T02:22:08.436Z,12.90
2018-09-21T02:24:37.001Z,12.90
2018-09-21T02:27:05.506Z,12.90
2018-09-21T02:29:33.894Z,12.90
2018-09-21T02:32:03.165Z,12.90
2018-09-21T02:34:31.790Z,12.90
2018-09-21T02:37:00.293Z,12.90
2018-09-21T02:39:28.804Z,12.90
2018-09-21T02:41:57.609Z,13.00
2018-09-21T02:44:26.557Z,12.90
2018-09-21T02:46:55.200Z,12.90
2018-09-21T02:49:23.959Z,12.80
2018-09-21T02:51:52.945Z,12.80
2018-09-21T02:54:21.528Z,12.80
2018-09-21T02:56:50.268Z,12.80
2018-09-21T02:59:19.097Z,12.70
2018-09-21T03:01:47.891Z,12.70
2018-09-21T03:04:16.688Z,12.70
2018-09-21T03:06:45.264Z,12.70
2018-09-21T03:09:13.719Z,12.60
2018-09-21T03:11:42.639Z,12.60
2018-09-21T03:14:11.099Z,12.50
2018-09-21T03:16:39.473Z,12.50
2018-09-21T03:19:08.459Z,12.40
2018-09-21T03:21:36.867Z,12.40
2018-09-21T03:24:05.331Z,12.40
2018-09-21T03:26:33.789Z,12.40
2018-09-21T03:29:02.327Z,12.40
2018-09-21T03:31:30.970Z,12.40
2018-09-21T03:33:59.786Z,12.40
2018-09-21T03:36:28.741Z,12.40
2018-09-21T03:38:57.360Z,12.30
2018-09-21T03:41:26.375Z,12.30
2018-09-21T03:43:55.324Z,12.30
2018-09-21T03:46:23.767Z,12.40
2018-09-21T03:48:52.386Z,12.40
2018-09-21T03:51:20.826Z,12.40
2018-09-21T03:53:49.321Z,12.40
2018-09-21T03:56:18.044Z,12.40
2018-09-21T03:58:46.515Z,12.30
2018-09-21T04:01:15.042Z,12.30
2018-09-21T04:03:43.543Z,12.20
2018-09-21T04:06:12.183Z,12.30
2018-09-21T04:08:42.166Z,12.20
2018-09-21T04:11:10.555Z,12.20
2018-09-21T04:13:38.976Z,12.20
2018-09-21T04:16:07.586Z,12.20
2018-09-21T04:18:36.345Z,12.20
2018-09-21T04:21:05.058Z,12.20
2018-09-21T04:23:33.491Z,12.20
2018-09-21T04:26:02.496Z,12.20
2018-09-21T04:28:30.905Z,12.30
2018-09-21T04:30:59.335Z,12.30
2018-09-21T04:33:27.768Z,12.30
2018-09-21T04:35:56.551Z,12.30
2018-09-21T04:38:24.960Z,12.30
2018-09-21T04:40:53.473Z,12.30
2018-09-21T04:43:22.057Z,12.70
2018-09-21T04:45:51.212Z,12.90
2018-09-21T04:48:19.925Z,12.90
2018-09-21T04:50:48.558Z,12.70
2018-09-21T04:53:17.800Z,12.60
2018-09-21T04:55:46.199Z,12.60
2018-09-21T04:58:14.671Z,12.50
2018-09-21T05:00:44.683Z,12.50
2018-09-21T05:03:13.360Z,12.40
2018-09-21T05:05:42.038Z,12.40
2018-09-21T05:08:10.639Z,12.40
2018-09-21T05:10:39.759Z,12.40
2018-09-21T05:13:08.347Z,12.50
2018-09-21T05:15:36.775Z,12.50
2018-09-21T05:18:05.272Z,12.50
2018-09-21T05:20:34.048Z,12.50
2018-09-21T05:23:02.816Z,12.60
2018-09-21T05:25:31.850Z,12.60
2018-09-21T05:28:00.348Z,12.60
2018-09-21T05:30:29.099Z,12.70
2018-09-21T05:32:58.769Z,12.70
2018-09-21T05:35:27.244Z,12.80
2018-09-21T05:37:55.957Z,12.90
2018-09-21T05:40:24.740Z,12.90
2018-09-21T05:42:53.408Z,13.00
2018-09-21T05:45:22.385Z,13.00
2018-09-21T05:47:50.812Z,13.10
2018-09-21T05:50:19.385Z,13.10
2018-09-21T05:52:47.886Z,13.20
2018-09-21T05:55:17.113Z,13.20
2018-09-21T05:57:45.772Z,13.30
2018-09-21T06:00:15.913Z,13.30
2018-09-21T06:02:46.066Z,13.40
2018-09-21T06:05:14.871Z,13.50
2018-09-21T06:07:43.971Z,13.50
2018-09-21T06:10:12.679Z,13.60
2018-09-21T06:12:41.449Z,13.60
2018-09-21T06:15:11.209Z,13.80
2018-09-21T06:17:39.702Z,13.80
2018-09-21T06:20:12.186Z,13.90
2018-09-21T06:22:45.034Z,14.00
2018-09-21T06:25:08.098Z,14.10
2018-09-21T06:27:36.869Z,14.20
2018-09-21T06:30:05.619Z,14.30
2018-09-21T06:32:34.267Z,14.50
2018-09-21T06:35:03.263Z,14.70
2018-09-21T06:37:31.758Z,14.80
2018-09-21T06:40:01.158Z,15.00
2018-09-21T06:42:29.706Z,15.10
2018-09-21T06:44:58.646Z,15.40
2018-09-21T06:47:27.400Z,15.60
2018-09-21T06:49:56.078Z,16.00
2018-09-21T06:52:24.917Z,16.30
2018-09-21T06:54:53.604Z,16.80
2018-09-21T06:57:22.008Z,17.40
2018-09-21T06:59:50.668Z,18.10
2018-09-21T07:02:19.107Z,18.60
2018-09-21T07:04:47.528Z,19.30
2018-09-21T07:07:16.064Z,20.20
2018-09-21T07:09:44.699Z,21.30
2018-09-21T07:12:13.631Z,22.30
2018-09-21T07:14:42.515Z,22.90
2018-09-21T07:17:10.911Z,24.00
2018-09-21T07:19:39.322Z,25.40
2018-09-21T07:22:08.373Z,26.40
2018-09-21T07:24:36.880Z,27.20
2018-09-21T07:27:06.119Z,27.70
2018-09-21T07:29:34.601Z,28.50
2018-09-21T07:32:03.401Z,29.50
2018-09-21T07:34:32.064Z,30.70
2018-09-21T07:37:00.963Z,31.40
2018-09-21T07:39:29.586Z,31.80
2018-09-21T07:41:58.030Z,32.60
2018-09-21T07:44:27.050Z,32.40
2018-09-21T07:46:56.244Z,32.30
2018-09-21T07:49:24.714Z,32.10
2018-09-21T07:51:53.582Z,32.70
2018-09-21T07:54:22.276Z,33.40
2018-09-21T07:56:51.753Z,33.20
2018-09-21T07:59:20.514Z,33.00
2018-09-21T08:01:49.102Z,33.60
2018-09-21T08:04:18.221Z,33.60
2018-09-21T08:06:46.673Z,33.70
2018-09-21T08:09:15.521Z,33.50
2018-09-21T08:11:44.386Z,33.40
2018-09-21T08:14:13.164Z,33.30
2018-09-21T08:16:42.022Z,33.40
2018-09-21T08:19:10.621Z,33.60
2018-09-21T08:21:39.903Z,33.30
2018-09-21T08:24:08.676Z,33.60
2018-09-21T08:26:37.707Z,34.30
2018-09-21T08:29:08.126Z,33.80
2018-09-21T08:31:37.309Z,33.90
2018-09-21T08:34:05.951Z,33.80
2018-09-21T08:36:34.437Z,33.60
2018-09-21T08:39:04.916Z,33.70
2018-09-21T08:41:33.828Z,33.90
2018-09-21T08:44:02.516Z,34.20
2018-09-21T08:46:31.379Z,34.20
2018-09-21T08:48:59.945Z,34.60
2018-09-21T08:51:32.647Z,34.10
2018-09-21T08:54:01.939Z,33.60
2018-09-21T08:56:30.925Z,33.10
2018-09-21T08:58:59.934Z,33.30
2018-09-21T09:01:28.864Z,33.40
2018-09-21T09:03:57.713Z,33.50
2018-09-21T09:06:27.265Z,34.20
2018-09-21T09:08:56.131Z,34.20
2018-09-21T09:11:24.863Z,34.60
2018-09-21T09:13:53.378Z,34.40
2018-09-21T09:16:23.194Z,34.40
2018-09-21T09:18:51.869Z,34.70
2018-09-21T09:21:20.667Z,34.70
2018-09-21T09:23:49.549Z,34.60
2018-09-21T09:26:18.089Z,34.30
2018-09-21T09:28:46.779Z,35.00
2018-09-21T09:31:16.969Z,35.20
2018-09-21T09:33:45.672Z,35.20
2018-09-21T09:36:14.361Z,36.00
2018-09-21T09:38:43.388Z,36.50
2018-09-21T09:41:12.394Z,36.00
2018-09-21T09:43:40.891Z,36.10
2018-09-21T09:46:09.431Z,35.50
2018-09-21T09:48:38.770Z,35.30
2018-09-21T09:51:07.340Z,35.50
2018-09-21T09:53:36.423Z,35.70
2018-09-21T09:56:05.161Z,35.60
2018-09-21T09:58:33.741Z,35.70
2018-09-21T10:01:02.694Z,35.50
2018-09-21T10:03:31.464Z,35.30
2018-09-21T10:06:00.374Z,35.30
2018-09-21T10:08:28.846Z,35.20
2018-09-21T10:10:57.468Z,34.90
2018-09-21T10:13:25.915Z,35.10
2018-09-21T10:15:54.808Z,35.30
2018-09-21T10:18:23.204Z,35.10
2018-09-21T10:20:51.976Z,35.10
2018-09-21T10:23:20.596Z,35.40
2018-09-21T10:25:49.024Z,36.00
2018-09-21T10:28:17.684Z,36.20
2018-09-21T10:30:46.109Z,36.20
2018-09-21T10:33:15.716Z,35.90
2018-09-21T10:35:44.132Z,35.80
2018-09-21T10:38:12.660Z,36.20
2018-09-21T10:40:41.572Z,36.40
2018-09-21T10:43:10.132Z,36.50
2018-09-21T10:45:38.620Z,37.00
2018-09-21T10:48:07.081Z,37.40
2018-09-21T10:50:36.182Z,36.90
2018-09-21T10:53:04.895Z,36.50
2018-09-21T10:55:33.644Z,36.80
2018-09-21T10:58:02.763Z,36.70
2018-09-21T11:00:31.209Z,36.10
2018-09-21T11:02:59.628Z,35.90
2018-09-21T11:05:28.278Z,35.50
2018-09-21T11:07:57.115Z,35.10
2018-09-21T11:10:25.621Z,34.70
2018-09-21T11:12:54.050Z,34.00
2018-09-21T11:15:22.480Z,33.20
2018-09-21T11:17:51.205Z,32.80
2018-09-21T11:20:19.611Z,32.30
2018-09-21T11:22:48.100Z,31.80
2018-09-21T11:25:17.179Z,31.40
2018-09-21T11:27:45.827Z,31.10
2018-09-21T11:30:14.439Z,30.80
2018-09-21T11:32:44.354Z,30.10
2018-09-21T11:35:13.268Z,29.60
2018-09-21T11:37:42.184Z,29.20
2018-09-21T11:40:11.063Z,29.20
2018-09-21T11:42:39.568Z,29.70
2018-09-21T11:45:08.249Z,30.20
2018-09-21T11:47:37.293Z,30.50
2018-09-21T11:50:05.810Z,30.70
2018-09-21T11:52:34.562Z,30.80
2018-09-21T11:55:03.213Z,30.80
2018-09-21T11:57:31.691Z,30.80
2018-09-21T12:00:00.828Z,30.50
2018-09-21T12:02:29.457Z,30.40
2018-09-21T12:04:58.051Z,30.30
2018-09-21T12:07:26.615Z,30.30
2018-09-21T12:09:55.162Z,30.30
2018-09-21T12:12:23.984Z,30.20
2018-09-21T12:14:52.925Z,30.10
2018-09-21T12:17:22.600Z,30.00
2018-09-21T12:19:51.055Z,29.90
2018-09-21T12:22:19.792Z,30.00
2018-09-21T12:24:48.611Z,30.00
2018-09-21T12:27:17.388Z,30.00
2018-09-21T12:29:45.861Z,29.90
2018-09-21T12:32:14.315Z,29.80
2018-09-21T12:34:42.958Z,29.90
2018-09-21T12:37:11.939Z,29.90
2018-09-21T12:39:40.608Z,29.90
2018-09-21T12:42:09.062Z,30.00
2018-09-21T12:44:37.640Z,30.00
2018-09-21T12:47:06.330Z,30.10
2018-09-21T12:49:36.163Z,29.90
2018-09-21T12:52:04.682Z,29.80
2018-09-21T12:54:33.141Z,29.90
2018-09-21T12:57:01.573Z,29.90
2018-09-21T12:59:30.296Z,29.90
2018-09-21T13:01:58.946Z,29.70
2018-09-21T13:04:27.373Z,29.50
2018-09-21T13:06:55.922Z,29.40
2018-09-21T13:09:24.391Z,29.40
2018-09-21T13:11:53.221Z,29.30
2018-09-21T13:14:21.643Z,29.10
2018-09-21T13:16:50.154Z,29.10
2018-09-21T13:19:19.080Z,29.20
2018-09-21T13:21:47.703Z,29.10
2018-09-21T13:24:16.469Z,29.00
2018-09-21T13:26:45.060Z,29.00
2018-09-21T13:29:14.006Z,29.00
2018-09-21T13:31:42.904Z,28.90
2018-09-21T13:34:11.500Z,29.10
2018-09-21T13:36:40.272Z,29.10
2018-09-21T13:39:11.362Z,29.30
2018-09-21T13:41:40.291Z,29.10
2018-09-21T13:44:09.296Z,28.80
2018-09-21T13:46:38.328Z,28.40
2018-09-21T13:49:07.082Z,28.20
2018-09-21T13:51:35.861Z,28.00
2018-09-21T13:54:04.975Z,27.80
2018-09-21T13:56:33.438Z,27.50
2018-09-21T13:59:03.626Z,27.40
2018-09-21T14:01:32.159Z,27.10
2018-09-21T14:04:01.566Z,26.90
2018-09-21T14:06:29.986Z,27.20
2018-09-21T14:08:58.462Z,27.50
2018-09-21T14:11:27.066Z,27.90
2018-09-21T14:13:55.773Z,28.20
2018-09-21T14:16:24.377Z,28.40
2018-09-21T14:18:53.086Z,28.50
2018-09-21T14:21:23.315Z,28.60
2018-09-21T14:23:52.091Z,28.40
2018-09-21T14:26:20.550Z,28.10
2018-09-21T14:28:49.881Z,27.90
2018-09-21T14:31:18.675Z,27.60
2018-09-21T14:33:47.535Z,27.30
2018-09-21T14:36:15.955Z,27.00
2018-09-21T14:38:44.683Z,26.80
2018-09-21T14:41:13.205Z,26.60
2018-09-21T14:43:42.590Z,26.40
2018-09-21T14:46:11.609Z,26.30
2018-09-21T14:48:40.336Z,26.30
2018-09-21T14:51:09.630Z,26.20
2018-09-21T14:53:38.314Z,26.20
2018-09-21T14:56:06.753Z,26.20
2018-09-21T14:58:35.171Z,26.10
2018-09-21T15:01:03.994Z,26.10
2018-09-21T15:03:32.647Z,26.00
2018-09-21T15:06:01.307Z,25.90
2018-09-21T15:08:29.784Z,25.90
2018-09-21T15:10:58.428Z,25.90
2018-09-21T15:13:27.740Z,25.90
2018-09-21T15:15:56.507Z,25.80
2018-09-21T15:18:25.258Z,25.70
2018-09-21T15:20:55.064Z,25.70
2018-09-21T15:23:23.515Z,25.50
2018-09-21T15:25:52.144Z,25.50
2018-09-21T15:28:20.616Z,25.40
2018-09-21T15:30:49.331Z,25.40
2018-09-21T15:33:18.245Z,25.40
2018-09-21T15:35:46.686Z,25.30
2018-09-21T15:38:15.120Z,25.20
2018-09-21T15:40:43.796Z,25.10
2018-09-21T15:43:12.568Z,25.00
2018-09-21T15:45:40.973Z,24.90
2018-09-21T15:48:09.462Z,24.90
2018-09-21T15:50:38.547Z,24.80
2018-09-21T15:53:07.270Z,24.60
2018-09-21T15:55:35.984Z,24.60
2018-09-21T15:58:04.804Z,24.60
2018-09-21T16:00:33.263Z,24.40
2018-09-21T16:03:02.388Z,24.40
2018-09-21T16:05:30.871Z,24.30
2018-09-21T16:07:59.578Z,24.20
2018-09-21T16:10:28.437Z,24.20
2018-09-21T16:12:56.914Z,24.20
2018-09-21T16:15:25.832Z,24.00
2018-09-21T16:17:54.280Z,23.90
2018-09-21T16:20:22.988Z,23.90
2018-09-21T16:22:51.907Z,23.80
2018-09-21T16:25:20.471Z,23.80
2018-09-21T16:27:49.519Z,23.70
2018-09-21T16:30:18.009Z,23.60
2018-09-21T16:32:47.761Z,23.40
2018-09-21T16:35:16.206Z,23.40
2018-09-21T16:37:44.723Z,23.40
2018-09-21T16:40:13.155Z,23.30
2018-09-21T16:42:41.753Z,23.20
2018-09-21T16:45:10.531Z,23.10
2018-09-21T16:47:39.048Z,23.10
2018-09-21T16:50:08.434Z,23.00
2018-09-21T16:52:36.901Z,22.90
2018-09-21T16:55:05.527Z,22.80
2018-09-21T16:57:34.398Z,22.70
2018-09-21T17:00:03.108Z,22.70
2018-09-21T17:02:31.850Z,22.60
2018-09-21T17:05:00.527Z,22.60
2018-09-21T17:07:29.773Z,22.50
2018-09-21T17:09:58.181Z,22.50
2018-09-21T17:12:27.151Z,22.50
2018-09-21T17:14:55.630Z,22.40
2018-09-21T17:17:24.050Z,22.30
2018-09-21T17:19:52.806Z,22.30
2018-09-21T17:22:21.418Z,22.20
2018-09-21T17:24:49.923Z,22.20
2018-09-21T17:27:18.441Z,22.10
2018-09-21T17:29:47.340Z,22.10
2018-09-21T17:32:15.801Z,22.10
2018-09-21T17:34:44.354Z,22.00
2018-09-21T17:37:12.933Z,22.00
2018-09-21T17:39:41.776Z,21.90
2018-09-21T17:42:10.244Z,21.90
2018-09-21T17:44:38.976Z,21.80
2018-09-21T17:47:07.866Z,21.70
2018-09-21T17:49:36.338Z,21.80
2018-09-21T17:52:05.365Z,21.70
2018-09-21T17:54:33.959Z,21.70
2018-09-21T17:57:02.739Z,21.60
2018-09-21T17:59:31.928Z,21.60
2018-09-21T18:02:00.624Z,21.60
2018-09-21T18:04:29.177Z,21.60
2018-09-21T18:06:57.712Z,21.50
2018-09-21T18:09:26.716Z,21.40
2018-09-21T18:11:56.068Z,21.30
2018-09-21T18:14:24.797Z,21.10
2018-09-21T18:16:53.865Z,20.90
2018-09-21T18:19:22.495Z,20.70
2018-09-21T18:21:51.087Z,20.60
2018-09-21T18:24:19.493Z,20.50
2018-09-21T18:26:48.192Z,20.30
2018-09-21T18:29:16.842Z,20.30
2018-09-21T18:31:45.377Z,20.20
2018-09-21T18:34:14.401Z,20.20
2018-09-21T18:36:42.950Z,20.10
2018-09-21T18:39:11.664Z,20.10
2018-09-21T18:41:40.138Z,20.10
2018-09-21T18:44:09.124Z,20.10
2018-09-21T18:46:37.808Z,20.00
2018-09-21T18:49:06.841Z,20.00
2018-09-21T18:51:35.426Z,20.00
2018-09-21T18:54:04.135Z,20.00
2018-09-21T18:56:33.159Z,20.00
2018-09-21T18:59:01.846Z,19.90
2018-09-21T19:01:31.102Z,19.90
2018-09-21T19:03:59.804Z,19.70
2018-09-21T19:06:28.392Z,19.40
2018-09-21T19:08:56.871Z,19.10
2018-09-21T19:11:25.874Z,18.60
2018-09-21T19:13:54.600Z,18.20
2018-09-21T19:16:23.339Z,17.80
2018-09-21T19:18:52.514Z,17.70
2018-09-21T19:21:21.659Z,17.50
2018-09-21T19:23:50.348Z,17.30
2018-09-21T19:26:19.416Z,16.90
2018-09-21T19:28:48.228Z,16.60
2018-09-21T19:31:17.205Z,16.30
2018-09-21T19:33:46.071Z,16.10
2018-09-21T19:36:14.999Z,15.90
2018-09-21T19:38:43.574Z,15.80
2018-09-21T19:41:13.002Z,15.60
2018-09-21T19:43:42.074Z,15.40
2018-09-21T19:46:11.073Z,15.20
2018-09-21T19:48:39.754Z,15.10
2018-09-21T19:51:08.238Z,15.10
2018-09-21T19:53:38.840Z,15.00
2018-09-21T19:56:07.452Z,14.90
2018-09-21T19:58:36.851Z,14.70
2018-09-21T20:01:05.949Z,14.60
2018-09-21T20:03:34.391Z,14.50
2018-09-21T20:06:03.409Z,14.40
2018-09-21T20:08:32.104Z,14.30
2018-09-21T20:11:01.106Z,14.20
2018-09-21T20:13:29.787Z,14.20
2018-09-21T20:15:58.250Z,14.20
2018-09-21T20:18:27.290Z,14.10
2018-09-21T20:20:56.462Z,14.00
2018-09-21T20:23:25.153Z,13.90
2018-09-21T20:25:53.910Z,13.70
2018-09-21T20:28:22.716Z,13.60
2018-09-21T20:30:57.099Z,13.50
2018-09-21T20:33:27.268Z,13.50
2018-09-21T20:35:56.012Z,13.30
2018-09-21T20:38:24.775Z,13.20
2018-09-21T20:40:53.418Z,13.00
2018-09-21T20:43:23.161Z,13.00
2018-09-21T20:45:52.008Z,12.90
2018-09-21T20:48:21.246Z,12.80
2018-09-21T20:50:50.288Z,12.80
2018-09-21T20:53:19.185Z,12.80
2018-09-21T20:55:47.718Z,12.70
2018-09-21T20:58:16.415Z,12.70
2018-09-21T21:00:45.415Z,12.70
2018-09-21T21:03:13.993Z,12.60
2018-09-21T21:05:43.147Z,12.60
2018-09-21T21:08:12.118Z,12.60
2018-09-21T21:10:41.061Z,12.60
2018-09-21T21:13:09.728Z,12.60
2018-09-21T21:15:38.519Z,12.60
2018-09-21T21:18:07.493Z,12.60
2018-09-21T21:20:36.471Z,12.60
2018-09-21T21:23:05.769Z,12.60
2018-09-21T21:25:34.413Z,12.50
2018-09-21T21:28:02.963Z,12.40
2018-09-21T21:30:31.638Z,12.40
2018-09-21T21:33:00.070Z,12.40
2018-09-21T21:35:28.570Z,12.40
2018-09-21T21:37:57.298Z,12.30
2018-09-21T21:40:26.072Z,12.30
2018-09-21T21:42:55.045Z,12.20
2018-09-21T21:45:23.803Z,12.20
2018-09-21T21:47:53.146Z,12.20
2018-09-21T21:50:21.797Z,12.20
2018-09-21T21:52:50.319Z,12.20
2018-09-21T21:55:19.055Z,12.20
2018-09-21T21:57:47.463Z,12.20
2018-09-21T22:00:16.128Z,12.20
2018-09-21T22:02:44.687Z,12.20
2018-09-21T22:05:13.382Z,12.20
2018-09-21T22:07:41.997Z,12.20
2018-09-21T22:10:10.989Z,12.20
2018-09-21T22:12:45.176Z,12.20
2018-09-21T22:15:17.074Z,12.20
2018-09-21T22:17:45.822Z,12.10
2018-09-21T22:20:14.632Z,12.10
2018-09-21T22:22:43.109Z,12.10
2018-09-21T22:25:12.304Z,12.10
2018-09-21T22:27:41.407Z,12.10
2018-09-21T22:30:10.078Z,12.10
2018-09-21T22:32:39.913Z,12.10
2018-09-21T22:35:08.428Z,12.10
2018-09-21T22:37:37.275Z,12.10
2018-09-21T22:40:06.284Z,12.10
2018-09-21T22:42:34.933Z,12.10
2018-09-21T22:45:03.861Z,12.10
2018-09-21T22:47:33.054Z,12.10
2018-09-21T22:50:01.608Z,12.10
2018-09-21T22:52:30.443Z,12.00
2018-09-21T22:54:59.440Z,12.00
2018-09-21T22:57:28.041Z,12.00
2018-09-21T22:59:56.677Z,12.10
2018-09-21T23:02:25.979Z,12.10
2018-09-21T23:04:54.398Z,12.00
2018-09-21T23:07:22.801Z,12.00
2018-09-21T23:09:51.189Z,12.00
2018-09-21T23:12:19.765Z,12.00
2018-09-21T23:14:49.242Z,12.00
2018-09-21T23:17:17.690Z,12.00
2018-09-21T23:19:46.244Z,12.00
2018-09-21T23:22:15.289Z,12.00
2018-09-21T23:24:43.788Z,12.00
2018-09-21T23:27:12.258Z,12.00
2018-09-21T23:29:41.320Z,12.00
2018-09-21T23:32:09.952Z,11.90
2018-09-21T23:34:38.483Z,11.90
2018-09-21T23:37:07.342Z,11.90
2018-09-21T23:39:35.761Z,11.90
2018-09-21T23:42:04.321Z,11.90
2018-09-21T23:44:32.743Z,11.90
2018-09-21T23:47:01.823Z,11.90
2018-09-21T23:49:30.465Z,11.90
2018-09-21T23:51:58.906Z,11.90
2018-09-21T23:54:27.605Z,11.90
2018-09-21T23:56:56.279Z,11.90
2018-09-21T23:59:24.757Z,12.00
